sensor_id;sensor_type;location;lat;lon;timestamp;P1;durP1;ratioP1;P2;durP2;ratioP2
71959;SDS011;59832;51.146;14.024;2022-12-18T00:02:11;48.67;;;17.48;;
71959;SDS011;59832;51.146;14.024;2022-12-18T00:04:37;46.63;;;17.17;;
71959;SDS011;59832;51.146;14.024;2022-12-18T00:07:04;49.17;;;18.30;;
71959;SDS011;59832;51.146;14.024;2022-12-18T00:09:30;45.33;;;17.75;;
71959;SDS011;59832;51.146;14.024;2022-12-18T00:12:05;41.00;;;15.90;;
71959;SDS011;59832;51.146;14.024;2022-12-18T00:14:41;46.22;;;17.52;;
71959;SDS011;59832;51.146;14.024;2022-12-18T00:17:09;44.03;;;16.95;;
71959;SDS011;59832;51.146;14.024;2022-12-18T00:19:35;64.78;;;19.98;;
71959;SDS011;59832;51.146;14.024;2022-12-18T00:22:02;45.83;;;17.45;;
71959;SDS011;59832;51.146;14.024;2022-12-18T00:24:28;49.60;;;16.88;;
71959;SDS011;59832;51.146;14.024;2022-12-18T00:26:55;44.80;;;17.30;;
71959;SDS011;59832;51.146;14.024;2022-12-18T00:29:21;60.05;;;17.05;;
71959;SDS011;59832;51.146;14.024;2022-12-18T00:31:48;63.45;;;17.20;;
71959;SDS011;59832;51.146;14.024;2022-12-18T00:34:14;54.73;;;17.40;;
71959;SDS011;59832;51.146;14.024;2022-12-18T00:36:41;62.63;;;19.35;;
71959;SDS011;59832;51.146;14.024;2022-12-18T00:39:07;71.15;;;21.13;;
71959;SDS011;59832;51.146;14.024;2022-12-18T00:41:36;64.15;;;19.15;;
71959;SDS011;59832;51.146;14.024;2022-12-18T00:44:21;66.25;;;17.02;;
71959;SDS011;59832;51.146;14.024;2022-12-18T00:46:47;45.58;;;16.52;;
71959;SDS011;59832;51.146;14.024;2022-12-18T00:49:17;56.42;;;17.95;;
71959;SDS011;59832;51.146;14.024;2022-12-18T00:51:45;49.47;;;16.52;;
71959;SDS011;59832;51.146;14.024;2022-12-18T00:54:12;64.75;;;17.33;;
71959;SDS011;59832;51.146;14.024;2022-12-18T00:56:39;53.63;;;18.00;;
71959;SDS011;59832;51.146;14.024;2022-12-18T00:59:14;76.43;;;17.15;;
71959;SDS011;59832;51.146;14.024;2022-12-18T01:01:40;51.80;;;17.47;;
71959;SDS011;59832;51.146;14.024;2022-12-18T01:04:07;41.53;;;15.27;;
71959;SDS011;59832;51.146;14.024;2022-12-18T01:06:34;53.28;;;17.77;;
71959;SDS011;59832;51.146;14.024;2022-12-18T01:09:01;52.05;;;17.98;;
71959;SDS011;59832;51.146;14.024;2022-12-18T01:11:28;59.42;;;17.40;;
71959;SDS011;59832;51.146;14.024;2022-12-18T01:13:54;42.25;;;15.82;;
71959;SDS011;59832;51.146;14.024;2022-12-18T01:16:21;51.10;;;17.48;;
71959;SDS011;59832;51.146;14.024;2022-12-18T01:18:50;63.92;;;17.60;;
71959;SDS011;59832;51.146;14.024;2022-12-18T01:21:18;57.97;;;16.65;;
71959;SDS011;59832;51.146;14.024;2022-12-18T01:23:45;60.40;;;18.65;;
71959;SDS011;59832;51.146;14.024;2022-12-18T01:26:13;66.93;;;19.40;;
71959;SDS011;59832;51.146;14.024;2022-12-18T01:28:42;60.75;;;19.08;;
71959;SDS011;59832;51.146;14.024;2022-12-18T01:33:39;49.65;;;16.50;;
71959;SDS011;59832;51.146;14.024;2022-12-18T01:36:06;59.17;;;18.15;;
71959;SDS011;59832;51.146;14.024;2022-12-18T01:38:33;61.30;;;18.45;;
71959;SDS011;59832;51.146;14.024;2022-12-18T01:41:00;63.33;;;19.73;;
71959;SDS011;59832;51.146;14.024;2022-12-18T01:46:07;68.72;;;19.30;;
71959;SDS011;59832;51.146;14.024;2022-12-18T01:48:33;62.25;;;16.60;;
71959;SDS011;59832;51.146;14.024;2022-12-18T01:51:00;47.28;;;16.65;;
71959;SDS011;59832;51.146;14.024;2022-12-18T01:53:27;53.88;;;16.35;;
71959;SDS011;59832;51.146;14.024;2022-12-18T01:55:57;50.58;;;17.13;;
71959;SDS011;59832;51.146;14.024;2022-12-18T02:03:49;45.30;;;15.18;;
71959;SDS011;59832;51.146;14.024;2022-12-18T02:06:19;53.90;;;16.92;;
71959;SDS011;59832;51.146;14.024;2022-12-18T02:17:01;45.38;;;16.45;;
71959;SDS011;59832;51.146;14.024;2022-12-18T02:27:46;45.97;;;15.85;;
71959;SDS011;59832;51.146;14.024;2022-12-18T02:30:16;45.28;;;14.68;;
71959;SDS011;59832;51.146;14.024;2022-12-18T02:32:45;42.88;;;15.35;;
71959;SDS011;59832;51.146;14.024;2022-12-18T02:35:17;50.33;;;14.48;;
71959;SDS011;59832;51.146;14.024;2022-12-18T02:37:48;46.05;;;14.85;;
71959;SDS011;59832;51.146;14.024;2022-12-18T02:40:15;49.13;;;13.57;;
71959;SDS011;59832;51.146;14.024;2022-12-18T02:42:43;48.10;;;13.82;;
71959;SDS011;59832;51.146;14.024;2022-12-18T02:45:09;45.65;;;14.35;;
71959;SDS011;59832;51.146;14.024;2022-12-18T02:47:38;44.38;;;13.73;;
71959;SDS011;59832;51.146;14.024;2022-12-18T02:50:22;44.90;;;14.25;;
71959;SDS011;59832;51.146;14.024;2022-12-18T02:53:10;41.97;;;13.52;;
71959;SDS011;59832;51.146;14.024;2022-12-18T02:58:16;41.20;;;14.27;;
71959;SDS011;59832;51.146;14.024;2022-12-18T03:00:59;45.65;;;14.30;;
71959;SDS011;59832;51.146;14.024;2022-12-18T03:03:38;61.53;;;14.18;;
71959;SDS011;59832;51.146;14.024;2022-12-18T03:06:43;45.97;;;14.68;;
71959;SDS011;59832;51.146;14.024;2022-12-18T03:09:07;48.50;;;16.58;;
71959;SDS011;59832;51.146;14.024;2022-12-18T03:11:37;47.35;;;15.00;;
71959;SDS011;59832;51.146;14.024;2022-12-18T03:14:26;41.88;;;13.20;;
71959;SDS011;59832;51.146;14.024;2022-12-18T03:16:58;41.55;;;13.57;;
71959;SDS011;59832;51.146;14.024;2022-12-18T03:19:28;62.15;;;17.08;;
71959;SDS011;59832;51.146;14.024;2022-12-18T03:21:57;51.83;;;14.77;;
71959;SDS011;59832;51.146;14.024;2022-12-18T03:24:27;42.30;;;13.50;;
71959;SDS011;59832;51.146;14.024;2022-12-18T03:26:58;41.80;;;12.95;;
71959;SDS011;59832;51.146;14.024;2022-12-18T03:29:50;43.63;;;12.75;;
71959;SDS011;59832;51.146;14.024;2022-12-18T03:32:29;46.05;;;13.10;;
71959;SDS011;59832;51.146;14.024;2022-12-18T03:34:59;47.92;;;14.18;;
71959;SDS011;59832;51.146;14.024;2022-12-18T03:37:30;42.58;;;13.77;;
71959;SDS011;59832;51.146;14.024;2022-12-18T03:39:56;46.25;;;13.90;;
71959;SDS011;59832;51.146;14.024;2022-12-18T03:42:45;47.57;;;12.97;;
71959;SDS011;59832;51.146;14.024;2022-12-18T03:45:19;44.97;;;13.48;;
71959;SDS011;59832;51.146;14.024;2022-12-18T03:55:36;42.70;;;13.32;;
71959;SDS011;59832;51.146;14.024;2022-12-18T03:58:03;43.72;;;14.25;;
71959;SDS011;59832;51.146;14.024;2022-12-18T04:00:32;45.03;;;14.68;;
71959;SDS011;59832;51.146;14.024;2022-12-18T04:03:00;38.15;;;12.77;;
71959;SDS011;59832;51.146;14.024;2022-12-18T04:05:29;43.42;;;14.65;;
71959;SDS011;59832;51.146;14.024;2022-12-18T04:07:58;35.00;;;12.60;;
71959;SDS011;59832;51.146;14.024;2022-12-18T04:10:25;38.38;;;12.30;;
71959;SDS011;59832;51.146;14.024;2022-12-18T04:12:51;35.70;;;12.52;;
71959;SDS011;59832;51.146;14.024;2022-12-18T04:15:22;39.55;;;12.95;;
71959;SDS011;59832;51.146;14.024;2022-12-18T04:17:49;38.05;;;12.23;;
71959;SDS011;59832;51.146;14.024;2022-12-18T04:20:16;36.38;;;12.85;;
71959;SDS011;59832;51.146;14.024;2022-12-18T04:22:43;33.65;;;12.45;;
71959;SDS011;59832;51.146;14.024;2022-12-18T04:25:09;39.03;;;12.45;;
71959;SDS011;59832;51.146;14.024;2022-12-18T04:27:36;38.90;;;11.98;;
71959;SDS011;59832;51.146;14.024;2022-12-18T04:30:02;28.67;;;11.68;;
71959;SDS011;59832;51.146;14.024;2022-12-18T04:32:29;42.45;;;13.75;;
71959;SDS011;59832;51.146;14.024;2022-12-18T04:34:57;35.30;;;13.13;;
71959;SDS011;59832;51.146;14.024;2022-12-18T04:37:23;37.80;;;14.45;;
71959;SDS011;59832;51.146;14.024;2022-12-18T04:39:49;34.40;;;12.77;;
71959;SDS011;59832;51.146;14.024;2022-12-18T04:42:19;43.70;;;13.43;;
71959;SDS011;59832;51.146;14.024;2022-12-18T04:44:45;46.70;;;15.38;;
71959;SDS011;59832;51.146;14.024;2022-12-18T04:47:11;35.63;;;13.07;;
71959;SDS011;59832;51.146;14.024;2022-12-18T04:49:38;41.70;;;14.73;;
71959;SDS011;59832;51.146;14.024;2022-12-18T04:52:04;48.80;;;15.18;;
71959;SDS011;59832;51.146;14.024;2022-12-18T04:54:31;42.08;;;14.10;;
71959;SDS011;59832;51.146;14.024;2022-12-18T04:56:57;40.80;;;14.50;;
71959;SDS011;59832;51.146;14.024;2022-12-18T04:59:24;41.10;;;13.88;;
71959;SDS011;59832;51.146;14.024;2022-12-18T05:01:50;37.60;;;13.90;;
71959;SDS011;59832;51.146;14.024;2022-12-18T05:04:17;40.55;;;14.30;;
71959;SDS011;59832;51.146;14.024;2022-12-18T05:06:45;36.30;;;14.13;;
71959;SDS011;59832;51.146;14.024;2022-12-18T05:09:11;34.95;;;14.55;;
71959;SDS011;59832;51.146;14.024;2022-12-18T05:11:37;38.13;;;15.15;;
71959;SDS011;59832;51.146;14.024;2022-12-18T05:14:04;32.83;;;12.90;;
71959;SDS011;59832;51.146;14.024;2022-12-18T05:16:30;34.83;;;13.30;;
71959;SDS011;59832;51.146;14.024;2022-12-18T05:18:57;31.23;;;12.75;;
71959;SDS011;59832;51.146;14.024;2022-12-18T05:21:24;38.55;;;12.68;;
71959;SDS011;59832;51.146;14.024;2022-12-18T05:23:50;29.17;;;11.55;;
71959;SDS011;59832;51.146;14.024;2022-12-18T05:26:17;32.22;;;12.75;;
71959;SDS011;59832;51.146;14.024;2022-12-18T05:31:11;34.97;;;12.60;;
71959;SDS011;59832;51.146;14.024;2022-12-18T05:33:37;42.17;;;16.00;;
71959;SDS011;59832;51.146;14.024;2022-12-18T05:36:05;48.30;;;17.88;;
71959;SDS011;59832;51.146;14.024;2022-12-18T05:38:34;49.35;;;17.63;;
71959;SDS011;59832;51.146;14.024;2022-12-18T05:41:03;50.88;;;17.20;;
71959;SDS011;59832;51.146;14.024;2022-12-18T05:43:30;51.42;;;15.85;;
71959;SDS011;59832;51.146;14.024;2022-12-18T05:45:57;46.70;;;17.02;;
71959;SDS011;59832;51.146;14.024;2022-12-18T05:48:23;47.65;;;16.42;;
71959;SDS011;59832;51.146;14.024;2022-12-18T05:50:50;42.90;;;16.98;;
71959;SDS011;59832;51.146;14.024;2022-12-18T05:53:18;48.55;;;18.02;;
71959;SDS011;59832;51.146;14.024;2022-12-18T05:55:46;43.70;;;18.40;;
71959;SDS011;59832;51.146;14.024;2022-12-18T05:58:13;63.75;;;26.52;;
71959;SDS011;59832;51.146;14.024;2022-12-18T06:00:41;52.28;;;20.65;;
71959;SDS011;59832;51.146;14.024;2022-12-18T06:03:09;45.47;;;16.75;;
71959;SDS011;59832;51.146;14.024;2022-12-18T06:05:40;50.97;;;18.95;;
71959;SDS011;59832;51.146;14.024;2022-12-18T06:08:09;49.50;;;18.95;;
71959;SDS011;59832;51.146;14.024;2022-12-18T06:10:36;52.83;;;18.48;;
71959;SDS011;59832;51.146;14.024;2022-12-18T06:13:03;55.53;;;19.13;;
71959;SDS011;59832;51.146;14.024;2022-12-18T06:15:30;51.85;;;18.85;;
71959;SDS011;59832;51.146;14.024;2022-12-18T06:17:57;48.10;;;17.48;;
71959;SDS011;59832;51.146;14.024;2022-12-18T06:20:24;46.42;;;17.15;;
71959;SDS011;59832;51.146;14.024;2022-12-18T06:22:58;43.75;;;18.00;;
71959;SDS011;59832;51.146;14.024;2022-12-18T06:25:24;45.33;;;16.25;;
71959;SDS011;59832;51.146;14.024;2022-12-18T06:27:51;44.42;;;17.08;;
71959;SDS011;59832;51.146;14.024;2022-12-18T06:30:17;47.78;;;17.10;;
71959;SDS011;59832;51.146;14.024;2022-12-18T06:32:44;48.50;;;18.05;;
71959;SDS011;59832;51.146;14.024;2022-12-18T06:35:13;42.08;;;17.42;;
71959;SDS011;59832;51.146;14.024;2022-12-18T06:37:40;50.03;;;18.63;;
71959;SDS011;59832;51.146;14.024;2022-12-18T06:40:06;49.17;;;17.33;;
71959;SDS011;59832;51.146;14.024;2022-12-18T06:42:33;48.67;;;17.27;;
71959;SDS011;59832;51.146;14.024;2022-12-18T06:45:00;101.75;;;32.42;;
71959;SDS011;59832;51.146;14.024;2022-12-18T06:47:26;74.60;;;26.05;;
71959;SDS011;59832;51.146;14.024;2022-12-18T06:49:53;47.53;;;18.70;;
71959;SDS011;59832;51.146;14.024;2022-12-18T06:52:19;73.32;;;27.67;;
71959;SDS011;59832;51.146;14.024;2022-12-18T06:54:46;61.13;;;24.55;;
71959;SDS011;59832;51.146;14.024;2022-12-18T06:57:12;64.85;;;24.73;;
71959;SDS011;59832;51.146;14.024;2022-12-18T06:59:38;63.92;;;23.48;;
71959;SDS011;59832;51.146;14.024;2022-12-18T07:02:05;48.33;;;18.38;;
71959;SDS011;59832;51.146;14.024;2022-12-18T07:04:31;50.40;;;17.40;;
71959;SDS011;59832;51.146;14.024;2022-12-18T07:06:58;47.92;;;17.35;;
71959;SDS011;59832;51.146;14.024;2022-12-18T07:09:24;85.85;;;29.38;;
71959;SDS011;59832;51.146;14.024;2022-12-18T07:11:51;50.88;;;18.88;;
71959;SDS011;59832;51.146;14.024;2022-12-18T07:14:18;69.00;;;24.27;;
71959;SDS011;59832;51.146;14.024;2022-12-18T07:16:44;57.25;;;18.58;;
71959;SDS011;59832;51.146;14.024;2022-12-18T07:19:11;64.70;;;22.93;;
71959;SDS011;59832;51.146;14.024;2022-12-18T07:21:38;61.38;;;22.50;;
71959;SDS011;59832;51.146;14.024;2022-12-18T07:24:04;58.22;;;21.55;;
71959;SDS011;59832;51.146;14.024;2022-12-18T07:26:31;47.78;;;17.90;;
71959;SDS011;59832;51.146;14.024;2022-12-18T07:28:58;42.77;;;15.83;;
71959;SDS011;59832;51.146;14.024;2022-12-18T07:31:25;63.27;;;23.03;;
71959;SDS011;59832;51.146;14.024;2022-12-18T07:33:53;64.00;;;24.20;;
71959;SDS011;59832;51.146;14.024;2022-12-18T07:36:20;37.50;;;14.63;;
71959;SDS011;59832;51.146;14.024;2022-12-18T07:38:49;48.92;;;17.50;;
71959;SDS011;59832;51.146;14.024;2022-12-18T07:41:17;125.15;;;48.88;;
71959;SDS011;59832;51.146;14.024;2022-12-18T07:43:44;98.60;;;44.30;;
71959;SDS011;59832;51.146;14.024;2022-12-18T07:46:12;82.32;;;37.80;;
71959;SDS011;59832;51.146;14.024;2022-12-18T07:48:42;33.55;;;12.27;;
71959;SDS011;59832;51.146;14.024;2022-12-18T07:51:14;28.10;;;10.10;;
71959;SDS011;59832;51.146;14.024;2022-12-18T07:53:42;45.55;;;18.20;;
71959;SDS011;59832;51.146;14.024;2022-12-18T07:56:10;25.58;;;10.85;;
71959;SDS011;59832;51.146;14.024;2022-12-18T07:58:56;26.83;;;10.20;;
71959;SDS011;59832;51.146;14.024;2022-12-18T08:01:24;35.38;;;10.38;;
71959;SDS011;59832;51.146;14.024;2022-12-18T08:06:18;28.60;;;10.05;;
71959;SDS011;59832;51.146;14.024;2022-12-18T08:08:47;30.38;;;10.57;;
71959;SDS011;59832;51.146;14.024;2022-12-18T08:11:15;24.42;;;9.65;;
71959;SDS011;59832;51.146;14.024;2022-12-18T08:13:41;27.75;;;10.20;;
71959;SDS011;59832;51.146;14.024;2022-12-18T08:16:08;27.23;;;9.93;;
71959;SDS011;59832;51.146;14.024;2022-12-18T08:18:35;24.03;;;9.80;;
71959;SDS011;59832;51.146;14.024;2022-12-18T08:21:11;29.92;;;10.50;;
71959;SDS011;59832;51.146;14.024;2022-12-18T08:23:42;24.60;;;10.07;;
71959;SDS011;59832;51.146;14.024;2022-12-18T08:26:12;25.42;;;9.98;;
71959;SDS011;59832;51.146;14.024;2022-12-18T08:28:39;23.65;;;9.48;;
71959;SDS011;59832;51.146;14.024;2022-12-18T08:31:06;24.13;;;9.80;;
71959;SDS011;59832;51.146;14.024;2022-12-18T08:33:34;22.75;;;9.23;;
71959;SDS011;59832;51.146;14.024;2022-12-18T08:36:03;22.10;;;9.50;;
71959;SDS011;59832;51.146;14.024;2022-12-18T08:38:33;20.65;;;8.65;;
71959;SDS011;59832;51.146;14.024;2022-12-18T08:41:00;22.30;;;9.98;;
71959;SDS011;59832;51.146;14.024;2022-12-18T08:43:30;28.58;;;10.45;;
71959;SDS011;59832;51.146;14.024;2022-12-18T08:46:16;21.85;;;9.45;;
71959;SDS011;59832;51.146;14.024;2022-12-18T08:48:43;23.70;;;9.45;;
71959;SDS011;59832;51.146;14.024;2022-12-18T08:51:09;23.37;;;10.50;;
71959;SDS011;59832;51.146;14.024;2022-12-18T08:56:04;24.48;;;10.02;;
71959;SDS011;59832;51.146;14.024;2022-12-18T08:58:31;25.10;;;9.63;;
71959;SDS011;59832;51.146;14.024;2022-12-18T09:01:01;26.30;;;10.02;;
71959;SDS011;59832;51.146;14.024;2022-12-18T09:03:29;27.90;;;10.52;;
71959;SDS011;59832;51.146;14.024;2022-12-18T09:05:56;27.95;;;11.25;;
71959;SDS011;59832;51.146;14.024;2022-12-18T09:08:22;27.55;;;11.68;;
71959;SDS011;59832;51.146;14.024;2022-12-18T09:10:49;27.80;;;10.63;;
71959;SDS011;59832;51.146;14.024;2022-12-18T09:13:17;25.92;;;10.50;;
71959;SDS011;59832;51.146;14.024;2022-12-18T09:15:45;20.10;;;9.13;;
71959;SDS011;59832;51.146;14.024;2022-12-18T09:18:14;27.42;;;10.93;;
71959;SDS011;59832;51.146;14.024;2022-12-18T09:20:41;27.63;;;11.13;;
71959;SDS011;59832;51.146;14.024;2022-12-18T09:23:08;27.30;;;10.05;;
71959;SDS011;59832;51.146;14.024;2022-12-18T09:25:36;24.27;;;9.63;;
71959;SDS011;59832;51.146;14.024;2022-12-18T09:28:04;24.17;;;9.82;;
71959;SDS011;59832;51.146;14.024;2022-12-18T09:30:33;27.30;;;11.38;;
71959;SDS011;59832;51.146;14.024;2022-12-18T09:33:00;27.48;;;10.38;;
71959;SDS011;59832;51.146;14.024;2022-12-18T09:35:27;29.70;;;10.73;;
71959;SDS011;59832;51.146;14.024;2022-12-18T09:37:54;20.52;;;9.52;;
71959;SDS011;59832;51.146;14.024;2022-12-18T09:40:22;23.48;;;9.98;;
71959;SDS011;59832;51.146;14.024;2022-12-18T09:42:52;28.13;;;10.13;;
71959;SDS011;59832;51.146;14.024;2022-12-18T09:45:22;26.52;;;10.00;;
71959;SDS011;59832;51.146;14.024;2022-12-18T09:47:49;24.20;;;10.25;;
71959;SDS011;59832;51.146;14.024;2022-12-18T09:50:29;21.05;;;9.30;;
71959;SDS011;59832;51.146;14.024;2022-12-18T09:53:05;23.83;;;10.50;;
71959;SDS011;59832;51.146;14.024;2022-12-18T09:55:38;24.38;;;10.40;;
71959;SDS011;59832;51.146;14.024;2022-12-18T09:58:17;24.77;;;10.05;;
71959;SDS011;59832;51.146;14.024;2022-12-18T10:00:51;39.25;;;15.93;;
71959;SDS011;59832;51.146;14.024;2022-12-18T10:03:18;31.67;;;12.15;;
71959;SDS011;59832;51.146;14.024;2022-12-18T10:10:57;30.00;;;10.68;;
71959;SDS011;59832;51.146;14.024;2022-12-18T10:13:46;24.60;;;10.48;;
71959;SDS011;59832;51.146;14.024;2022-12-18T10:25:18;24.30;;;9.77;;
71959;SDS011;59832;51.146;14.024;2022-12-18T10:27:51;26.88;;;11.02;;
71959;SDS011;59832;51.146;14.024;2022-12-18T10:30:22;29.50;;;10.15;;
71959;SDS011;59832;51.146;14.024;2022-12-18T10:32:49;28.63;;;11.85;;
71959;SDS011;59832;51.146;14.024;2022-12-18T10:35:18;25.60;;;10.20;;
71959;SDS011;59832;51.146;14.024;2022-12-18T10:38:00;26.88;;;9.95;;
71959;SDS011;59832;51.146;14.024;2022-12-18T10:40:28;28.73;;;11.63;;
71959;SDS011;59832;51.146;14.024;2022-12-18T10:43:11;29.90;;;11.40;;
71959;SDS011;59832;51.146;14.024;2022-12-18T10:45:39;26.08;;;10.73;;
71959;SDS011;59832;51.146;14.024;2022-12-18T10:48:17;26.08;;;10.35;;
71959;SDS011;59832;51.146;14.024;2022-12-18T10:50:46;21.00;;;9.40;;
71959;SDS011;59832;51.146;14.024;2022-12-18T10:53:36;25.27;;;10.25;;
71959;SDS011;59832;51.146;14.024;2022-12-18T10:56:04;25.05;;;10.15;;
71959;SDS011;59832;51.146;14.024;2022-12-18T10:58:33;23.58;;;10.18;;
71959;SDS011;59832;51.146;14.024;2022-12-18T11:01:09;28.70;;;12.23;;
71959;SDS011;59832;51.146;14.024;2022-12-18T11:06:28;28.08;;;11.35;;
71959;SDS011;59832;51.146;14.024;2022-12-18T11:11:26;23.15;;;9.60;;
71959;SDS011;59832;51.146;14.024;2022-12-18T11:16:33;23.50;;;10.25;;
71959;SDS011;59832;51.146;14.024;2022-12-18T11:21:50;20.42;;;9.32;;
71959;SDS011;59832;51.146;14.024;2022-12-18T11:24:21;23.20;;;10.10;;
71959;SDS011;59832;51.146;14.024;2022-12-18T11:26:53;23.03;;;10.27;;
71959;SDS011;59832;51.146;14.024;2022-12-18T11:29:28;21.25;;;9.13;;
71959;SDS011;59832;51.146;14.024;2022-12-18T11:34:51;23.48;;;11.13;;
71959;SDS011;59832;51.146;14.024;2022-12-18T11:37:24;23.83;;;9.98;;
71959;SDS011;59832;51.146;14.024;2022-12-18T11:39:54;28.23;;;12.82;;
71959;SDS011;59832;51.146;14.024;2022-12-18T11:45:20;29.48;;;12.38;;
71959;SDS011;59832;51.146;14.024;2022-12-18T11:50:24;18.58;;;8.82;;
71959;SDS011;59832;51.146;14.024;2022-12-18T11:52:55;26.27;;;9.90;;
71959;SDS011;59832;51.146;14.024;2022-12-18T11:55:46;23.00;;;8.82;;
71959;SDS011;59832;51.146;14.024;2022-12-18T12:01:02;30.90;;;12.18;;
71959;SDS011;59832;51.146;14.024;2022-12-18T12:06:24;23.17;;;9.85;;
71959;SDS011;59832;51.146;14.024;2022-12-18T12:11:47;23.60;;;9.95;;
71959;SDS011;59832;51.146;14.024;2022-12-18T12:17:35;22.92;;;9.18;;
71959;SDS011;59832;51.146;14.024;2022-12-18T12:25:55;22.50;;;10.43;;
71959;SDS011;59832;51.146;14.024;2022-12-18T12:28:37;19.38;;;8.63;;
71959;SDS011;59832;51.146;14.024;2022-12-18T12:37:07;24.98;;;10.30;;
71959;SDS011;59832;51.146;14.024;2022-12-18T12:39:38;44.35;;;15.85;;
71959;SDS011;59832;51.146;14.024;2022-12-18T12:42:16;21.67;;;9.02;;
71959;SDS011;59832;51.146;14.024;2022-12-18T12:45:21;24.08;;;10.05;;
71959;SDS011;59832;51.146;14.024;2022-12-18T12:47:54;24.10;;;9.80;;
71959;SDS011;59832;51.146;14.024;2022-12-18T12:50:24;25.75;;;9.77;;
71959;SDS011;59832;51.146;14.024;2022-12-18T12:52:52;31.77;;;11.50;;
71959;SDS011;59832;51.146;14.024;2022-12-18T12:55:25;31.02;;;11.35;;
71959;SDS011;59832;51.146;14.024;2022-12-18T13:00:20;25.23;;;9.43;;
71959;SDS011;59832;51.146;14.024;2022-12-18T13:02:52;23.13;;;9.85;;
71959;SDS011;59832;51.146;14.024;2022-12-18T13:08:23;27.13;;;9.98;;
71959;SDS011;59832;51.146;14.024;2022-12-18T13:10:53;23.98;;;9.52;;
71959;SDS011;59832;51.146;14.024;2022-12-18T13:13:51;24.63;;;9.60;;
71959;SDS011;59832;51.146;14.024;2022-12-18T13:16:20;19.35;;;8.63;;
71959;SDS011;59832;51.146;14.024;2022-12-18T13:18:51;23.30;;;8.85;;
71959;SDS011;59832;51.146;14.024;2022-12-18T13:21:21;27.58;;;10.48;;
71959;SDS011;59832;51.146;14.024;2022-12-18T13:23:53;30.08;;;10.27;;
71959;SDS011;59832;51.146;14.024;2022-12-18T13:28:54;22.02;;;9.15;;
71959;SDS011;59832;51.146;14.024;2022-12-18T13:34:28;23.80;;;8.68;;
71959;SDS011;59832;51.146;14.024;2022-12-18T13:37:33;21.77;;;8.93;;
71959;SDS011;59832;51.146;14.024;2022-12-18T13:39:59;24.33;;;8.93;;
71959;SDS011;59832;51.146;14.024;2022-12-18T13:48:26;28.38;;;11.13;;
71959;SDS011;59832;51.146;14.024;2022-12-18T13:51:08;36.47;;;13.55;;
71959;SDS011;59832;51.146;14.024;2022-12-18T13:56:05;33.63;;;12.80;;
71959;SDS011;59832;51.146;14.024;2022-12-18T13:58:32;34.03;;;13.50;;
71959;SDS011;59832;51.146;14.024;2022-12-18T14:00:59;27.08;;;11.38;;
71959;SDS011;59832;51.146;14.024;2022-12-18T14:03:28;32.75;;;11.48;;
71959;SDS011;59832;51.146;14.024;2022-12-18T14:06:01;28.20;;;11.25;;
71959;SDS011;59832;51.146;14.024;2022-12-18T14:08:33;31.40;;;12.05;;
71959;SDS011;59832;51.146;14.024;2022-12-18T14:11:04;27.88;;;9.95;;
71959;SDS011;59832;51.146;14.024;2022-12-18T14:13:36;31.95;;;13.02;;
71959;SDS011;59832;51.146;14.024;2022-12-18T14:16:11;35.38;;;12.93;;
71959;SDS011;59832;51.146;14.024;2022-12-18T14:21:23;26.08;;;11.82;;
71959;SDS011;59832;51.146;14.024;2022-12-18T14:24:05;29.52;;;10.48;;
71959;SDS011;59832;51.146;14.024;2022-12-18T14:26:39;26.90;;;10.27;;
71959;SDS011;59832;51.146;14.024;2022-12-18T14:32:15;31.08;;;10.93;;
71959;SDS011;59832;51.146;14.024;2022-12-18T14:34:48;28.80;;;11.70;;
71959;SDS011;59832;51.146;14.024;2022-12-18T14:37:17;30.33;;;12.23;;
71959;SDS011;59832;51.146;14.024;2022-12-18T14:42:21;34.72;;;11.32;;
71959;SDS011;59832;51.146;14.024;2022-12-18T14:44:47;36.75;;;17.33;;
71959;SDS011;59832;51.146;14.024;2022-12-18T14:47:33;25.15;;;11.88;;
71959;SDS011;59832;51.146;14.024;2022-12-18T14:50:00;26.75;;;10.90;;
71959;SDS011;59832;51.146;14.024;2022-12-18T14:52:27;26.77;;;10.85;;
71959;SDS011;59832;51.146;14.024;2022-12-18T14:54:57;28.17;;;10.88;;
71959;SDS011;59832;51.146;14.024;2022-12-18T14:57:24;29.02;;;10.48;;
71959;SDS011;59832;51.146;14.024;2022-12-18T15:00:02;26.38;;;10.38;;
71959;SDS011;59832;51.146;14.024;2022-12-18T15:02:55;30.33;;;11.15;;
71959;SDS011;59832;51.146;14.024;2022-12-18T15:05:27;33.13;;;11.60;;
71959;SDS011;59832;51.146;14.024;2022-12-18T15:07:55;30.45;;;11.38;;
71959;SDS011;59832;51.146;14.024;2022-12-18T15:10:28;33.78;;;11.48;;
71959;SDS011;59832;51.146;14.024;2022-12-18T15:20:41;38.58;;;12.73;;
71959;SDS011;59832;51.146;14.024;2022-12-18T15:25:43;31.38;;;11.23;;
71959;SDS011;59832;51.146;14.024;2022-12-18T15:28:16;30.30;;;12.50;;
71959;SDS011;59832;51.146;14.024;2022-12-18T15:30:59;33.35;;;11.73;;
71959;SDS011;59832;51.146;14.024;2022-12-18T15:33:27;30.85;;;11.55;;
71959;SDS011;59832;51.146;14.024;2022-12-18T15:35:58;36.25;;;12.57;;
71959;SDS011;59832;51.146;14.024;2022-12-18T15:38:26;32.65;;;11.60;;
71959;SDS011;59832;51.146;14.024;2022-12-18T15:40:53;31.57;;;12.80;;
71959;SDS011;59832;51.146;14.024;2022-12-18T15:43:21;32.78;;;11.43;;
71959;SDS011;59832;51.146;14.024;2022-12-18T15:46:02;33.15;;;12.85;;
71959;SDS011;59832;51.146;14.024;2022-12-18T15:48:30;34.65;;;13.13;;
71959;SDS011;59832;51.146;14.024;2022-12-18T15:50:59;33.22;;;12.25;;
71959;SDS011;59832;51.146;14.024;2022-12-18T15:53:27;31.85;;;12.13;;
71959;SDS011;59832;51.146;14.024;2022-12-18T15:55:57;31.95;;;12.43;;
71959;SDS011;59832;51.146;14.024;2022-12-18T15:58:43;41.15;;;13.73;;
71959;SDS011;59832;51.146;14.024;2022-12-18T16:01:10;39.35;;;14.15;;
71959;SDS011;59832;51.146;14.024;2022-12-18T16:03:37;37.42;;;13.15;;
71959;SDS011;59832;51.146;14.024;2022-12-18T16:06:04;34.92;;;12.63;;
71959;SDS011;59832;51.146;14.024;2022-12-18T16:08:31;37.73;;;13.47;;
71959;SDS011;59832;51.146;14.024;2022-12-18T16:10:57;35.72;;;13.50;;
71959;SDS011;59832;51.146;14.024;2022-12-18T16:13:24;43.10;;;15.00;;
71959;SDS011;59832;51.146;14.024;2022-12-18T16:15:50;34.95;;;12.98;;
71959;SDS011;59832;51.146;14.024;2022-12-18T16:18:17;43.55;;;15.25;;
71959;SDS011;59832;51.146;14.024;2022-12-18T16:20:44;45.22;;;14.63;;
71959;SDS011;59832;51.146;14.024;2022-12-18T16:23:10;39.60;;;14.07;;
71959;SDS011;59832;51.146;14.024;2022-12-18T16:25:36;35.13;;;14.13;;
71959;SDS011;59832;51.146;14.024;2022-12-18T16:28:03;37.47;;;14.60;;
71959;SDS011;59832;51.146;14.024;2022-12-18T16:30:30;39.42;;;14.27;;
71959;SDS011;59832;51.146;14.024;2022-12-18T16:33:03;41.45;;;14.02;;
71959;SDS011;59832;51.146;14.024;2022-12-18T16:35:30;48.47;;;15.80;;
71959;SDS011;59832;51.146;14.024;2022-12-18T16:37:56;39.10;;;14.52;;
71959;SDS011;59832;51.146;14.024;2022-12-18T16:40:23;47.08;;;15.02;;
71959;SDS011;59832;51.146;14.024;2022-12-18T16:42:49;45.50;;;14.40;;
71959;SDS011;59832;51.146;14.024;2022-12-18T16:45:16;51.37;;;16.33;;
71959;SDS011;59832;51.146;14.024;2022-12-18T16:47:44;42.22;;;14.88;;